createdAt,value
2023-05-19T00:01:28.507Z,45.07
2023-05-19T00:03:34.154Z,44.87
2023-05-19T00:05:46.448Z,45.31
2023-05-19T00:07:54.925Z,45.01
2023-05-19T00:10:00.571Z,45.33
2023-05-19T00:12:05.956Z,45.19
2023-05-19T00:14:14.652Z,45.28
2023-05-19T00:16:20.121Z,45.15
2023-05-19T00:18:25.232Z,45.27
2023-05-19T00:20:30.475Z,45.13
2023-05-19T00:22:37.128Z,45.33
2023-05-19T00:24:42.274Z,45.29
2023-05-19T00:26:47.149Z,45.35
2023-05-19T00:28:52.873Z,45.23
2023-05-19T00:31:01.405Z,45.35
2023-05-19T00:33:06.524Z,45.23
2023-05-19T00:35:12.837Z,45.69
2023-05-19T00:37:17.810Z,45.42
2023-05-19T00:39:22.956Z,45.53
2023-05-19T00:41:28.019Z,45.70
2023-05-19T00:43:34.567Z,45.84
2023-05-19T00:45:39.797Z,45.53
2023-05-19T00:47:49.124Z,45.76
2023-05-19T00:49:54.168Z,45.60
2023-05-19T00:51:59.337Z,45.89
2023-05-19T00:54:04.227Z,45.71
2023-05-19T00:56:09.490Z,45.57
2023-05-19T00:58:15.336Z,45.63
2023-05-19T01:00:20.989Z,45.76
2023-05-19T01:02:25.960Z,45.83
2023-05-19T01:04:35.150Z,46.23
2023-05-19T01:06:41.475Z,45.96
2023-05-19T01:08:46.744Z,45.95
2023-05-19T01:10:52.306Z,46.16
2023-05-19T01:12:57.294Z,45.93
2023-05-19T01:15:02.856Z,46.05
2023-05-19T01:17:14.560Z,46.34
2023-05-19T01:19:41.066Z,46.42
2023-05-19T01:22:15.844Z,46.42
2023-05-19T01:24:37.183Z,46.52
2023-05-19T01:27:12.919Z,46.35
2023-05-19T01:29:39.135Z,46.60
2023-05-19T01:31:49.170Z,46.17
2023-05-19T01:33:56.820Z,45.97
2023-05-19T01:36:03.482Z,45.90
2023-05-19T01:38:13.180Z,46.47
2023-05-19T01:40:18.845Z,46.03
2023-05-19T01:42:25.363Z,45.97
2023-05-19T01:44:30.841Z,46.07
2023-05-19T01:46:37.032Z,46.18
2023-05-19T01:48:45.646Z,46.40
2023-05-19T01:50:52.096Z,45.98
2023-05-19T01:52:57.442Z,46.52
2023-05-19T01:55:02.369Z,46.46
2023-05-19T01:57:15.850Z,46.40
2023-05-19T01:59:34.656Z,46.35
2023-05-19T02:01:51.671Z,46.88
2023-05-19T02:04:12.173Z,46.71
2023-05-19T02:06:26.374Z,46.76
2023-05-19T02:08:35.962Z,46.62
2023-05-19T02:10:45.777Z,46.61
2023-05-19T02:12:55.443Z,46.44
2023-05-19T02:15:07.254Z,46.60
2023-05-19T02:17:15.839Z,46.48
2023-05-19T02:19:28.100Z,47.17
2023-05-19T02:21:34.102Z,46.62
2023-05-19T02:23:39.034Z,46.57
2023-05-19T02:25:44.131Z,46.98
2023-05-19T02:27:49.624Z,46.68
2023-05-19T02:29:54.822Z,46.84
2023-05-19T02:31:59.667Z,46.75
2023-05-19T02:34:04.983Z,46.95
2023-05-19T02:36:14.724Z,47.09
2023-05-19T02:38:19.681Z,46.94
2023-05-19T02:40:25.393Z,46.74
2023-05-19T02:42:30.674Z,46.63
2023-05-19T02:44:35.829Z,46.71
2023-05-19T02:46:41.108Z,46.98
2023-05-19T02:48:46.118Z,47.13
2023-05-19T02:50:51.206Z,46.73
2023-05-19T02:52:58.697Z,47.06
2023-05-19T02:55:03.949Z,46.84
2023-05-19T02:57:09.840Z,46.79
2023-05-19T02:59:14.841Z,46.80
2023-05-19T03:01:21.580Z,47.04
2023-05-19T03:03:27.343Z,46.89
2023-05-19T03:05:33.057Z,47.14
2023-05-19T03:07:37.944Z,46.89
2023-05-19T03:09:45.740Z,47.03
2023-05-19T03:11:50.736Z,46.96
2023-05-19T03:13:55.725Z,47.15
2023-05-19T03:16:02.376Z,47.14
2023-05-19T03:18:09.197Z,47.32
2023-05-19T03:20:16.235Z,47.33
2023-05-19T03:22:21.828Z,47.04
2023-05-19T03:24:26.991Z,46.93
2023-05-19T03:26:34.626Z,47.22
2023-05-19T03:28:39.535Z,47.33
2023-05-19T03:30:44.651Z,47.08
2023-05-19T03:32:54.329Z,47.18
2023-05-19T03:34:59.526Z,46.92
2023-05-19T03:37:04.837Z,47.03
2023-05-19T03:39:10.239Z,47.20
2023-05-19T03:41:15.735Z,47.52
2023-05-19T03:43:23.555Z,47.52
2023-05-19T03:45:34.454Z,47.41
2023-05-19T03:47:59.615Z,47.07
2023-05-19T03:50:38.276Z,47.41
2023-05-19T03:52:53.807Z,47.13
2023-05-19T03:55:11.975Z,47.21
2023-05-19T03:57:17.983Z,47.39
2023-05-19T03:59:26.410Z,47.19
2023-05-19T04:01:31.614Z,47.58
2023-05-19T04:03:36.692Z,47.16
2023-05-19T04:05:42.452Z,47.34
2023-05-19T04:07:47.382Z,47.64
2023-05-19T04:09:52.662Z,47.39
2023-05-19T04:11:58.033Z,47.74
2023-05-19T04:14:03.032Z,47.45
2023-05-19T04:16:11.021Z,47.59
2023-05-19T04:18:15.919Z,47.75
2023-05-19T04:20:21.362Z,47.77
2023-05-19T04:22:26.596Z,47.67
2023-05-19T04:24:31.642Z,47.81
2023-05-19T04:26:38.631Z,47.58
2023-05-19T04:28:44.930Z,47.90
2023-05-19T04:30:50.777Z,47.75
2023-05-19T04:32:58.426Z,48.04
2023-05-19T04:35:04.228Z,48.01
2023-05-19T04:37:10.584Z,47.94
2023-05-19T04:39:17.221Z,47.72
2023-05-19T04:41:24.296Z,47.74
2023-05-19T04:43:29.431Z,48.11
2023-05-19T04:45:34.406Z,48.03
2023-05-19T04:47:42.057Z,48.05
2023-05-19T04:49:49.744Z,48.05
2023-05-19T04:51:56.803Z,48.19
2023-05-19T04:54:06.676Z,48.16
2023-05-19T04:56:15.488Z,48.18
2023-05-19T04:58:21.578Z,48.23
2023-05-19T05:00:27.217Z,47.88
2023-05-19T05:02:37.380Z,47.94
2023-05-19T05:04:44.414Z,48.25
2023-05-19T05:06:52.391Z,48.33
2023-05-19T05:08:57.582Z,48.04
2023-05-19T05:11:04.294Z,48.23
2023-05-19T05:13:11.866Z,48.45
2023-05-19T05:15:18.236Z,48.25
2023-05-19T05:17:28.494Z,48.41
2023-05-19T05:19:34.069Z,48.30
2023-05-19T05:21:40.135Z,48.39
2023-05-19T05:23:48.625Z,48.55
2023-05-19T05:25:54.336Z,48.39
2023-05-19T05:28:05.346Z,48.18
2023-05-19T05:30:12.758Z,48.41
2023-05-19T05:32:19.302Z,48.50
2023-05-19T05:34:24.285Z,48.78
2023-05-19T05:36:29.600Z,48.68
2023-05-19T05:38:35.256Z,48.79
2023-05-19T05:40:43.910Z,48.80
2023-05-19T05:42:48.982Z,48.40
2023-05-19T05:44:55.843Z,48.55
2023-05-19T05:47:01.412Z,48.61
2023-05-19T05:49:06.947Z,48.59
2023-05-19T05:51:12.957Z,49.09
2023-05-19T05:53:22.226Z,48.66
2023-05-19T05:55:31.961Z,48.78
2023-05-19T05:57:42.089Z,49.01
2023-05-19T05:59:48.206Z,48.80
2023-05-19T06:01:53.835Z,48.58
2023-05-19T06:03:59.174Z,48.70
2023-05-19T06:06:04.696Z,48.60
2023-05-19T06:08:09.673Z,48.51
2023-05-19T06:10:15.327Z,48.61
2023-05-19T06:12:20.216Z,48.39
2023-05-19T06:14:30.354Z,48.34
2023-05-19T06:17:01.607Z,48.44
2023-05-19T06:19:07.714Z,48.29
2023-05-19T06:21:13.891Z,48.25
2023-05-19T06:23:20.221Z,48.53
2023-05-19T06:25:26.024Z,48.46
2023-05-19T06:27:33.296Z,48.35
2023-05-19T06:29:42.588Z,48.54
2023-05-19T06:31:47.792Z,48.36
2023-05-19T06:33:55.254Z,48.83
2023-05-19T06:36:00.237Z,48.68
2023-05-19T06:38:05.060Z,48.34
2023-05-19T06:40:12.518Z,48.47
2023-05-19T06:42:22.314Z,48.70
2023-05-19T06:44:47.652Z,48.71
2023-05-19T06:46:54.041Z,48.64
2023-05-19T06:48:59.032Z,48.60
2023-05-19T06:51:05.229Z,48.40
2023-05-19T06:53:12.361Z,48.17
2023-05-19T06:55:17.677Z,48.35
2023-05-19T06:57:22.551Z,48.18
2023-05-19T06:59:27.583Z,48.40
2023-05-19T07:01:35.259Z,47.94
2023-05-19T07:03:41.576Z,47.91
2023-05-19T07:05:47.642Z,47.65
2023-05-19T07:07:52.886Z,47.77
2023-05-19T07:10:01.926Z,47.93
2023-05-19T07:12:09.338Z,47.37
2023-05-19T07:14:14.241Z,47.58
2023-05-19T07:16:19.642Z,47.33
2023-05-19T07:18:27.509Z,47.46
2023-05-19T07:20:32.605Z,47.80
2023-05-19T07:22:38.759Z,47.73
2023-05-19T07:24:44.577Z,47.51
2023-05-19T07:26:49.514Z,47.82
2023-05-19T07:28:54.854Z,47.81
2023-05-19T07:30:59.972Z,47.43
2023-05-19T07:33:04.885Z,47.12
2023-05-19T07:35:12.482Z,47.55
2023-05-19T07:37:17.552Z,47.37
2023-05-19T07:39:22.591Z,47.62
2023-05-19T07:41:27.668Z,47.58
2023-05-19T07:43:32.844Z,47.45
2023-05-19T07:45:37.744Z,47.33
2023-05-19T07:47:42.772Z,47.19
2023-05-19T07:49:49.680Z,47.49
2023-05-19T07:51:58.955Z,47.87
2023-05-19T07:54:03.967Z,47.88
2023-05-19T07:56:08.892Z,47.60
2023-05-19T07:58:13.823Z,47.88
2023-05-19T08:00:19.957Z,47.64
2023-05-19T08:02:24.947Z,47.57
2023-05-19T08:04:30.251Z,47.73
2023-05-19T08:06:35.448Z,47.63
2023-05-19T08:08:43.581Z,47.68
2023-05-19T08:10:49.100Z,47.59
2023-05-19T08:12:54.009Z,47.88
2023-05-19T08:15:01.321Z,47.83
2023-05-19T08:17:07.381Z,47.56
2023-05-19T08:19:12.942Z,47.52
2023-05-19T08:21:18.131Z,47.25
2023-05-19T08:23:23.134Z,47.11
2023-05-19T08:25:30.951Z,46.99
2023-05-19T08:27:36.506Z,47.03
2023-05-19T08:29:41.438Z,47.36
2023-05-19T08:31:46.422Z,47.25
2023-05-19T08:33:51.630Z,47.33
2023-05-19T08:35:58.264Z,47.43
2023-05-19T08:38:03.242Z,47.02
2023-05-19T08:40:09.332Z,47.36
2023-05-19T08:42:17.131Z,46.86
2023-05-19T08:44:22.361Z,46.97
2023-05-19T08:46:28.673Z,47.16
2023-05-19T08:48:34.083Z,46.98
2023-05-19T08:50:44.369Z,47.11
2023-05-19T08:52:57.990Z,47.09
2023-05-19T08:55:07.585Z,47.18
2023-05-19T08:57:12.688Z,46.87
2023-05-19T08:59:21.833Z,46.87
2023-05-19T09:01:27.291Z,46.97
2023-05-19T09:03:33.042Z,47.07
2023-05-19T09:05:38.281Z,47.00
2023-05-19T09:07:43.575Z,47.12
2023-05-19T09:09:49.075Z,47.28
2023-05-19T09:11:53.926Z,47.12
2023-05-19T09:13:59.025Z,47.32
2023-05-19T09:16:06.959Z,47.30
2023-05-19T09:18:13.066Z,47.54
2023-05-19T09:20:20.203Z,47.26
2023-05-19T09:22:25.592Z,47.39
2023-05-19T09:24:31.871Z,47.31
2023-05-19T09:26:41.408Z,47.27
2023-05-19T09:28:46.279Z,47.30
2023-05-19T09:30:51.131Z,47.36
2023-05-19T09:32:59.495Z,47.26
2023-05-19T09:35:05.864Z,47.47
2023-05-19T09:37:10.950Z,47.21
2023-05-19T09:39:19.856Z,47.00
2023-05-19T09:41:25.204Z,46.89
2023-05-19T09:43:32.136Z,46.85
2023-05-19T09:45:37.352Z,46.97
2023-05-19T09:47:44.115Z,47.07
2023-05-19T09:49:52.792Z,47.04
2023-05-19T09:51:58.747Z,46.96
2023-05-19T09:54:04.619Z,46.87
2023-05-19T09:56:12.582Z,46.82
2023-05-19T09:58:20.697Z,46.96
2023-05-19T10:00:26.826Z,47.40
2023-05-19T10:02:33.380Z,47.07
2023-05-19T10:04:39.219Z,47.19
2023-05-19T10:06:47.701Z,47.33
2023-05-19T10:08:54.886Z,47.38
2023-05-19T10:11:00.835Z,47.14
2023-05-19T10:13:07.012Z,47.17
2023-05-19T10:15:14.379Z,47.34
2023-05-19T10:17:19.445Z,47.45
2023-05-19T10:19:25.974Z,47.24
2023-05-19T10:21:31.260Z,47.16
2023-05-19T10:23:39.174Z,47.24
2023-05-19T10:25:45.223Z,47.28
2023-05-19T10:27:57.139Z,47.17
2023-05-19T10:30:05.479Z,47.20
2023-05-19T10:32:15.437Z,46.76
2023-05-19T10:34:40.800Z,47.05
2023-05-19T10:36:52.578Z,46.66
2023-05-19T10:39:08.190Z,46.93
2023-05-19T10:41:19.832Z,47.06
2023-05-19T10:43:33.985Z,46.92
2023-05-19T10:45:49.025Z,46.64
2023-05-19T10:47:54.748Z,46.80
2023-05-19T10:50:03.254Z,46.89
2023-05-19T10:52:22.321Z,46.86
2023-05-19T10:54:45.436Z,46.69
2023-05-19T10:56:50.289Z,47.04
2023-05-19T10:58:55.527Z,46.93
2023-05-19T11:01:03.897Z,47.13
2023-05-19T11:03:18.889Z,47.33
2023-05-19T11:05:32.280Z,47.81
2023-05-19T11:07:37.515Z,47.90
2023-05-19T11:09:46.233Z,48.03
2023-05-19T11:11:52.701Z,47.61
2023-05-19T11:13:58.920Z,47.96
2023-05-19T11:16:10.396Z,47.68
2023-05-19T11:18:18.236Z,47.63
2023-05-19T11:20:27.348Z,48.26
2023-05-19T11:22:32.253Z,48.12
2023-05-19T11:24:40.217Z,47.56
2023-05-19T11:26:48.825Z,47.81
2023-05-19T11:28:54.504Z,47.86
2023-05-19T11:31:02.498Z,47.61
2023-05-19T11:33:08.503Z,47.23
2023-05-19T11:35:13.552Z,47.17
2023-05-19T11:37:20.063Z,47.65
2023-05-19T11:39:24.868Z,47.20
2023-05-19T11:41:31.235Z,47.45
2023-05-19T11:43:38.980Z,47.53
2023-05-19T11:45:43.868Z,47.18
2023-05-19T11:48:01.128Z,46.97
2023-05-19T11:50:07.925Z,47.19
2023-05-19T11:52:12.864Z,47.09
2023-05-19T11:54:17.779Z,46.99
2023-05-19T11:56:22.739Z,46.95
2023-05-19T11:58:29.871Z,46.84
2023-05-19T12:00:40.355Z,46.69
2023-05-19T12:02:46.016Z,46.94
2023-05-19T12:04:51.539Z,46.45
2023-05-19T12:06:56.767Z,46.40
2023-05-19T12:09:01.780Z,46.37
2023-05-19T12:11:08.147Z,46.97
2023-05-19T12:13:13.424Z,46.62
2023-05-19T12:15:19.105Z,46.69
2023-05-19T12:17:26.805Z,46.48
2023-05-19T12:19:31.955Z,46.78
2023-05-19T12:21:37.537Z,46.75
2023-05-19T12:23:43.471Z,47.10
2023-05-19T12:25:48.647Z,47.08
2023-05-19T12:27:56.828Z,46.82
2023-05-19T12:30:02.959Z,46.94
2023-05-19T12:32:08.533Z,46.78
2023-05-19T12:34:19.357Z,46.51
2023-05-19T12:36:27.279Z,46.49
2023-05-19T12:38:32.254Z,46.51
2023-05-19T12:40:38.586Z,46.34
2023-05-19T12:42:48.903Z,46.29
2023-05-19T12:44:55.116Z,46.48
2023-05-19T12:47:00.744Z,46.52
2023-05-19T12:49:05.592Z,46.37
2023-05-19T12:51:13.115Z,46.82
2023-05-19T12:53:18.417Z,46.43
2023-05-19T12:55:23.796Z,46.56
2023-05-19T12:57:29.556Z,46.63
2023-05-19T12:59:38.640Z,46.50
2023-05-19T13:01:43.868Z,46.81
2023-05-19T13:03:49.143Z,46.70
2023-05-19T13:05:54.343Z,46.72
2023-05-19T13:08:04.879Z,46.94
2023-05-19T13:10:11.057Z,46.68
2023-05-19T13:12:15.943Z,46.78
2023-05-19T13:14:21.414Z,46.74
2023-05-19T13:16:26.602Z,46.87
2023-05-19T13:18:32.789Z,47.25
2023-05-19T13:20:38.110Z,46.78
2023-05-19T13:22:43.319Z,46.99
2023-05-19T13:24:53.440Z,46.94
2023-05-19T13:26:58.442Z,46.75
2023-05-19T13:29:03.592Z,46.86
2023-05-19T13:31:08.469Z,46.79
2023-05-19T13:33:13.442Z,46.85
2023-05-19T13:35:18.801Z,46.86
2023-05-19T13:37:23.688Z,46.80
2023-05-19T13:39:29.068Z,46.95
2023-05-19T13:41:38.618Z,47.02
2023-05-19T13:43:43.821Z,46.65
2023-05-19T13:45:48.977Z,46.88
2023-05-19T13:47:54.188Z,46.90
2023-05-19T13:49:59.169Z,46.92
2023-05-19T13:52:04.054Z,47.08
2023-05-19T13:54:09.356Z,47.21
2023-05-19T13:56:14.244Z,47.08
2023-05-19T13:58:22.651Z,47.19
2023-05-19T14:00:27.750Z,47.09
2023-05-19T14:02:33.217Z,47.07
2023-05-19T14:04:40.733Z,47.15
2023-05-19T14:06:45.600Z,46.87
2023-05-19T14:08:51.540Z,47.17
2023-05-19T14:10:58.294Z,47.16
2023-05-19T14:13:30.368Z,47.31
2023-05-19T14:15:35.326Z,47.08
2023-05-19T14:17:40.544Z,47.16
2023-05-19T14:19:45.408Z,47.30
2023-05-19T14:21:50.291Z,47.12
2023-05-19T14:23:55.580Z,47.00
2023-05-19T14:26:00.565Z,47.24
2023-05-19T14:28:05.397Z,47.00
2023-05-19T14:30:11.936Z,47.19
2023-05-19T14:32:19.716Z,46.83
2023-05-19T14:34:24.912Z,46.79
2023-05-19T14:36:29.857Z,46.87
2023-05-19T14:38:34.842Z,46.70
2023-05-19T14:40:41.490Z,46.87
2023-05-19T14:42:46.539Z,47.05
2023-05-19T14:44:51.607Z,46.84
2023-05-19T14:46:56.450Z,46.81
2023-05-19T14:49:03.909Z,46.13
2023-05-19T14:51:08.825Z,46.07
2023-05-19T14:53:14.154Z,46.19
2023-05-19T14:55:19.278Z,46.44
2023-05-19T14:57:24.389Z,45.83
2023-05-19T14:59:29.904Z,46.11
2023-05-19T15:01:35.077Z,45.91
2023-05-19T15:03:40.627Z,46.13
2023-05-19T15:05:49.796Z,46.30
2023-05-19T15:07:54.876Z,45.76
2023-05-19T15:10:00.226Z,45.98
2023-05-19T15:12:05.668Z,46.10
2023-05-19T15:14:11.239Z,46.37
2023-05-19T15:16:18.280Z,45.92
2023-05-19T15:18:23.462Z,46.52
2023-05-19T15:20:29.594Z,46.02
2023-05-19T15:22:37.269Z,45.87
2023-05-19T15:24:42.229Z,45.70
2023-05-19T15:26:47.315Z,45.79
2023-05-19T15:28:52.348Z,45.81
2023-05-19T15:30:57.394Z,46.04
2023-05-19T15:33:02.558Z,45.62
2023-05-19T15:35:08.126Z,45.74
2023-05-19T15:37:13.037Z,45.61
2023-05-19T15:39:20.532Z,45.32
2023-05-19T15:41:25.976Z,45.28
2023-05-19T15:43:31.208Z,45.45
2023-05-19T15:45:39.300Z,45.68
2023-05-19T15:47:44.215Z,45.72
2023-05-19T15:49:49.264Z,46.01
2023-05-19T15:51:54.101Z,46.19
2023-05-19T15:53:59.025Z,46.11
2023-05-19T15:56:07.426Z,45.84
2023-05-19T15:58:13.962Z,45.75
2023-05-19T16:00:19.262Z,46.03
2023-05-19T16:02:24.405Z,45.97
2023-05-19T16:04:29.259Z,46.16
2023-05-19T16:06:34.341Z,46.28
2023-05-19T16:08:39.222Z,46.19
2023-05-19T16:10:44.337Z,45.89
2023-05-19T16:12:52.096Z,46.29
2023-05-19T16:14:57.457Z,46.07
2023-05-19T16:17:02.299Z,45.97
2023-05-19T16:19:07.306Z,46.33
2023-05-19T16:21:12.581Z,46.25
2023-05-19T16:23:17.615Z,46.16
2023-05-19T16:25:23.122Z,46.11
2023-05-19T16:27:27.953Z,46.33
2023-05-19T16:29:35.684Z,46.49
2023-05-19T16:31:41.075Z,46.57
2023-05-19T16:33:46.421Z,46.19
2023-05-19T16:35:51.391Z,46.43
2023-05-19T16:37:56.303Z,46.05
2023-05-19T16:40:01.313Z,46.30
2023-05-19T16:42:06.355Z,46.06
2023-05-19T16:44:14.798Z,46.17
2023-05-19T16:46:22.272Z,45.78
2023-05-19T16:48:27.264Z,46.12
2023-05-19T16:50:32.541Z,45.85
2023-05-19T16:52:37.450Z,46.29
2023-05-19T16:54:42.564Z,46.20
2023-05-19T16:56:47.814Z,46.30
2023-05-19T16:58:54.112Z,46.21
2023-05-19T17:00:59.109Z,46.27
2023-05-19T17:03:07.076Z,46.30
2023-05-19T17:05:12.359Z,46.32
2023-05-19T17:07:17.940Z,46.25
2023-05-19T17:09:26.156Z,46.48
2023-05-19T17:11:30.952Z,46.19
2023-05-19T17:13:36.839Z,46.54
2023-05-19T17:15:43.242Z,46.58
2023-05-19T17:17:48.407Z,46.33
2023-05-19T17:19:55.977Z,46.53
2023-05-19T17:22:00.823Z,46.53
2023-05-19T17:24:05.610Z,46.86
2023-05-19T17:26:10.584Z,46.71
2023-05-19T17:28:15.357Z,46.35
2023-05-19T17:30:20.138Z,46.72
2023-05-19T17:32:28.478Z,46.40
2023-05-19T17:34:33.447Z,46.28
2023-05-19T17:36:40.930Z,46.62
2023-05-19T17:38:45.824Z,46.69
2023-05-19T17:40:50.690Z,46.29
2023-05-19T17:42:55.537Z,46.57
2023-05-19T17:45:00.330Z,46.20
2023-05-19T17:47:07.397Z,46.25
2023-05-19T17:49:14.057Z,46.69
2023-05-19T17:51:19.290Z,46.54
2023-05-19T17:53:27.307Z,46.87
2023-05-19T17:55:33.216Z,46.75
2023-05-19T17:57:39.261Z,47.01
2023-05-19T17:59:45.099Z,46.69
2023-05-19T18:01:50.420Z,46.83
2023-05-19T18:03:56.196Z,46.75
2023-05-19T18:06:03.557Z,46.97
2023-05-19T18:08:09.904Z,47.15
2023-05-19T18:10:18.320Z,47.30
2023-05-19T18:12:23.460Z,47.19
2023-05-19T18:14:28.304Z,47.17
2023-05-19T18:16:33.179Z,47.54
2023-05-19T18:18:40.292Z,47.09
2023-05-19T18:20:45.905Z,47.56
2023-05-19T18:22:50.662Z,47.26
2023-05-19T18:24:55.549Z,47.59
2023-05-19T18:27:03.434Z,47.59
2023-05-19T18:29:08.250Z,47.65
2023-05-19T18:31:17.601Z,47.66
2023-05-19T18:33:24.165Z,47.25
2023-05-19T18:35:30.296Z,47.32
2023-05-19T18:37:35.147Z,47.80
2023-05-19T18:39:40.361Z,47.33
2023-05-19T18:41:46.040Z,47.82
2023-05-19T18:43:53.627Z,47.46
2023-05-19T18:45:58.596Z,47.38
2023-05-19T18:48:03.471Z,47.71
2023-05-19T18:50:10.355Z,47.79
2023-05-19T18:52:15.256Z,47.77
2023-05-19T18:54:21.800Z,47.61
2023-05-19T18:56:27.001Z,47.52
2023-05-19T18:58:31.844Z,47.98
2023-05-19T19:00:40.610Z,48.06
2023-05-19T19:02:45.512Z,47.63
2023-05-19T19:04:50.391Z,47.73
2023-05-19T19:06:55.346Z,47.69
2023-05-19T19:09:00.224Z,47.46
2023-05-19T19:11:09.407Z,47.61
2023-05-19T19:13:14.114Z,47.81
2023-05-19T19:15:19.002Z,47.32
2023-05-19T19:17:26.868Z,47.28
2023-05-19T19:19:32.171Z,47.26
2023-05-19T19:21:37.028Z,47.28
2023-05-19T19:23:41.863Z,47.48
2023-05-19T19:25:46.597Z,47.22
2023-05-19T19:27:51.418Z,47.60
2023-05-19T19:29:56.475Z,47.43
2023-05-19T19:32:01.482Z,47.65
2023-05-19T19:34:09.630Z,47.63
2023-05-19T19:36:14.417Z,47.67
2023-05-19T19:38:19.197Z,47.74
2023-05-19T19:40:25.124Z,47.68
2023-05-19T19:42:30.474Z,47.48
2023-05-19T19:44:35.253Z,47.96
2023-05-19T19:46:40.098Z,47.57
2023-05-19T19:48:44.933Z,47.57
2023-05-19T19:50:56.790Z,48.13
2023-05-19T19:53:01.854Z,48.04
2023-05-19T19:55:07.489Z,47.70
2023-05-19T19:57:12.412Z,47.90
2023-05-19T19:59:17.170Z,48.09
2023-05-19T20:01:23.887Z,47.89
2023-05-19T20:03:29.628Z,48.04
2023-05-19T20:05:34.815Z,47.59
2023-05-19T20:07:42.218Z,47.78
2023-05-19T20:09:47.060Z,47.80
2023-05-19T20:11:51.818Z,47.57
2023-05-19T20:13:56.662Z,47.74
2023-05-19T20:16:01.596Z,47.96
2023-05-19T20:18:06.529Z,47.74
2023-05-19T20:20:12.574Z,47.99
2023-05-19T20:22:17.417Z,48.05
2023-05-19T20:24:24.759Z,47.59
2023-05-19T20:26:29.567Z,47.80
2023-05-19T20:28:35.955Z,48.17
2023-05-19T20:30:41.271Z,47.75
2023-05-19T20:32:46.868Z,47.57
2023-05-19T20:34:51.847Z,47.75
2023-05-19T20:36:56.673Z,47.39
2023-05-19T20:39:01.583Z,47.57
2023-05-19T20:41:09.060Z,47.85
2023-05-19T20:43:13.875Z,47.59
2023-05-19T20:45:18.699Z,47.68
2023-05-19T20:47:23.878Z,47.45
2023-05-19T20:49:28.657Z,47.88
2023-05-19T20:51:33.464Z,47.52
2023-05-19T20:53:38.228Z,47.52
2023-05-19T20:55:43.476Z,47.64
2023-05-19T20:57:50.934Z,47.76
2023-05-19T20:59:55.705Z,47.50
2023-05-19T21:02:00.471Z,47.94
2023-05-19T21:04:07.954Z,47.99
2023-05-19T21:06:12.829Z,47.95
2023-05-19T21:08:17.809Z,47.79
2023-05-19T21:10:22.848Z,47.79
2023-05-19T21:12:34.285Z,47.90
2023-05-19T21:14:41.835Z,47.59
2023-05-19T21:16:46.710Z,47.75
2023-05-19T21:18:51.568Z,47.71
2023-05-19T21:20:56.417Z,47.59
2023-05-19T21:23:01.349Z,47.79
2023-05-19T21:25:06.331Z,47.90
2023-05-19T21:27:11.156Z,47.99
2023-05-19T21:29:15.983Z,47.70
2023-05-19T21:31:23.420Z,48.01
2023-05-19T21:33:28.593Z,48.15
2023-05-19T21:35:33.418Z,47.94
2023-05-19T21:37:38.452Z,48.18
2023-05-19T21:39:43.234Z,47.98
2023-05-19T21:41:48.124Z,47.74
2023-05-19T21:43:52.889Z,48.09
2023-05-19T21:45:57.814Z,48.08
2023-05-19T21:48:05.401Z,48.18
2023-05-19T21:50:15.762Z,48.18
2023-05-19T21:52:20.736Z,48.08
2023-05-19T21:54:25.572Z,48.14
2023-05-19T21:56:30.287Z,48.16
2023-05-19T21:58:35.043Z,48.24
2023-05-19T22:00:39.857Z,47.98
2023-05-19T22:02:45.005Z,48.46
2023-05-19T22:04:52.447Z,48.39
2023-05-19T22:06:57.270Z,48.31
2023-05-19T22:09:02.827Z,48.36
2023-05-19T22:11:08.484Z,48.25
2023-05-19T22:13:13.352Z,48.56
2023-05-19T22:15:18.212Z,48.25
2023-05-19T22:17:22.980Z,48.12
2023-05-19T22:19:27.920Z,48.40
2023-05-19T22:21:35.264Z,48.58
2023-05-19T22:23:40.091Z,48.47
2023-05-19T22:25:44.902Z,48.27
2023-05-19T22:27:49.781Z,48.70
2023-05-19T22:29:54.643Z,48.77
2023-05-19T22:31:59.533Z,48.43
2023-05-19T22:34:04.283Z,48.90
2023-05-19T22:36:11.193Z,48.54
2023-05-19T22:38:18.768Z,48.87
2023-05-19T22:40:23.634Z,48.86
2023-05-19T22:42:28.818Z,48.64
2023-05-19T22:44:33.780Z,48.67
2023-05-19T22:46:38.604Z,49.13
2023-05-19T22:48:43.405Z,49.04
2023-05-19T22:50:48.336Z,48.73
2023-05-19T22:52:53.363Z,48.95
2023-05-19T22:55:00.779Z,48.79
2023-05-19T22:57:06.708Z,48.82
2023-05-19T22:59:11.544Z,48.66
2023-05-19T23:01:17.335Z,48.71
2023-05-19T23:03:22.282Z,49.01
2023-05-19T23:05:27.217Z,49.04
2023-05-19T23:07:32.146Z,48.76
2023-05-19T23:09:36.993Z,48.87
2023-05-19T23:11:44.401Z,49.19
2023-05-19T23:13:49.228Z,49.10
2023-05-19T23:15:54.013Z,49.17
2023-05-19T23:17:59.070Z,48.86
2023-05-19T23:20:03.900Z,49.13
2023-05-19T23:22:09.758Z,49.22
2023-05-19T23:24:15.843Z,49.10
2023-05-19T23:26:21.572Z,49.34
2023-05-19T23:28:29.030Z,49.17
2023-05-19T23:30:33.837Z,49.04
2023-05-19T23:32:38.643Z,49.17
2023-05-19T23:34:43.480Z,49.20
2023-05-19T23:36:48.261Z,49.21
2023-05-19T23:38:53.015Z,49.35
2023-05-19T23:40:57.832Z,49.22
2023-05-19T23:43:02.797Z,48.92
2023-05-19T23:45:11.476Z,49.16
2023-05-19T23:47:16.249Z,48.85
2023-05-19T23:49:21.120Z,49.23
2023-05-19T23:51:26.083Z,48.98
2023-05-19T23:53:30.914Z,49.50
2023-05-19T23:55:36.008Z,49.47
2023-05-19T23:57:40.952Z,49.67
2023-05-19T23:59:45.970Z,49.46
